Airfield :
LOGIN :

Register | Disclaimer

   EN    FR    IT 

 










Legend :    VFR   Marginal VFR   IFR   Intensive IFR   Very Intensive IFR
Visi :
Ceiling :
>= 8 km
>= 3000ft
5 to 8 km
1000 to 3000 ft
1500m to 5 km
500 to 1000 ft
800 to 1500m
200 to 500 ft
< 800m
< 200 ft
Symbols :   Thunderstorms  Fog  Heavy snow  Heavy precipitations  Wind > 20 kt
SIGMETs :     Misc.  Thunderstorms  Icing  Turbulence  Mountain Waves  Volcanic Ashes






- Airport Elevation : 2297 ft


LEGA - Armilla

CURRENT METAR :
  • 270600Z 00000KT 9999 -DZ OVC005 11/10 Q1026

TAF TAF LEGA
Valid from the 27 at 06:00 until the 28 at 06:00 UTC


270500Z 2706/2806 VRB02KT 9999 SCT005 SCT020 TX19/2715Z TN09/2806Z
TEMPO 2706/2711 3000 BR BKN005
PROB30
TEMPO 2706/2710 0600 FG VV001
PROB40
TEMPO 2715/2718 33010KT



MET'MAP, your aeronautical weather chart ! - Copyright ORBIFLY December 2007 - Disclaimer

ORBIFLY MET'MAP TEAM :

Programming & Development : Alexandra Zaïnal
Concept & original design : Baudouin d'Aumeries
Assistance for programming : Marc-Olivier Méhu
Technical & hardware support : Manuel Goepfert

Contact : metmap@orbifly.com




SOURCES & CREDITS :

   NOAA